Etusivu
METAR-TAF:

METAR-TAF

Lentoasemat :

Quaqtaq, Quebec, Kanada

Leveyspiiri: 61-03N, Pituuspiiri: 069-38W, korkeus merenpinnasta: 30 m

Tämänhetkinen sää

Tämä raportti tehtiin 2 tuntia ja 1 minuuttia sitten, kello 12.00 UTC
Tuuli 2 kn eri suunnista
Lämpötila -15°C
Kosteus 65%
Ilmanpaine 1023 hPa
Näkyvyys: 24.1 km
Muutamia pilviä 30000 ft:n korkeudessa

METAR: CYHA 291200Z VRB02KT 15SM FEW300 M15/M20 A3021 RMK CS1 CS TR SN CVR/HARD PACK LAST STFD OBS/NEXT 301200UTC SLP236

Aika: 10:01 (14:01 UTC)


TAF: puuttuu

Säähavainnot ja -ennusteet yli 4000 lentoasemalta (METAR- ja TAF-raportit).

Käytössä olevat sääasemat on merkitty karttaan keltaisilla ja punaisilla pisteillä.

Aseta hiiri pisteen päälle nähdäksesi sääaseman nimen.

Klikkaa sitten nähdäksesi säähavainnot ja -ennusteet.

Kartan vaihtaminen: klikkaa mustalla rastilla varustettuja vihreitä pisteitä, niin voit zoomata sisään; viivalla varustettua vihreää pistettä, niin voit zoomata ulos tai vihreitä nuolia, niin pääset viereisille kartoille.


METAR-TAF: